Time;durP1;ratioP1;P1;durP2;ratioP2;P2;SDS_P1;SDS_P2;PMS_P1;PMS_P2;Temp;Humidity;BMP_temperature;BMP_pressure;BME280_temperature;BME280_humidity;BME280_pressure;Samples;Min_cycle;Max_cycle;Signal;HPM_P1;HPM_P2
2021/09/21 00:00:33;;;;;;;17.65;13.2;;;;;;;8.19;91.69141;95809.2;;;;
2021/09/21 00:01:34;;;;;;;17.65;13.2;;;;;;;8.19;91.69141;95809.2;;;;
2021/09/21 00:02:35;;;;;;;17.65;13.2;;;;;;;8.19;91.69141;95809.2;;;;
2021/09/21 00:03:35;;;;;;;17.65;13.2;;;;;;;8.19;91.69141;95809.2;;;;
2021/09/21 00:04:36;;;;;;;17.65;13.2;;;;;;;8.19;91.69141;95809.2;;;;
2021/09/21 00:05:37;;;;;;;17.65;13.2;;;;;;;8.19;91.69141;95809.2;;;;
2021/09/21 00:06:38;;;;;;;19.35;13.7;;;;;;;8;91.93945;95811.81;;;;
2021/09/21 00:07:38;;;;;;;19.35;13.7;;;;;;;8;91.93945;95811.81;;;;
2021/09/21 00:08:39;;;;;;;19.35;13.7;;;;;;;8;91.93945;95811.81;;;;
2021/09/21 00:09:40;;;;;;;19.35;13.7;;;;;;;8;91.93945;95811.81;;;;
2021/09/21 00:10:40;;;;;;;19.35;13.7;;;;;;;8;91.93945;95811.81;;;;
2021/09/21 00:11:41;;;;;;;19.35;13.7;;;;;;;8;91.93945;95811.81;;;;
2021/09/21 00:12:41;;;;;;;19.35;13.7;;;;;;;8;91.93945;95811.81;;;;
2021/09/21 00:13:43;;;;;;;19.35;13.7;;;;;;;8;91.93945;95811.81;;;;
2021/09/21 00:14:45;;;;;;;19.35;13.7;;;;;;;8;91.93945;95811.81;;;;
2021/09/21 00:15:45;;;;;;;19.35;13.7;;;;;;;8;91.93945;95811.81;;;;
2021/09/21 00:16:46;;;;;;;19.35;13.7;;;;;;;8;91.93945;95811.81;;;;
2021/09/21 00:17:47;;;;;;;18;13.05;;;;;;;7.94;92.34863;95812.2;;;;
2021/09/21 00:18:50;;;;;;;18;13.05;;;;;;;7.94;92.34863;95812.2;;;;
2021/09/21 00:19:50;;;;;;;18;13.05;;;;;;;7.94;92.34863;95812.2;;;;
2021/09/21 00:20:51;;;;;;;18;13.05;;;;;;;7.94;92.34863;95812.2;;;;
2021/09/21 00:21:52;;;;;;;18;13.05;;;;;;;7.94;92.34863;95812.2;;;;
2021/09/21 00:22:52;;;;;;;18;13.05;;;;;;;7.94;92.34863;95812.2;;;;
2021/09/21 00:23:53;;;;;;;18;13.05;;;;;;;7.94;92.34863;95812.2;;;;
2021/09/21 00:24:53;;;;;;;18;13.05;;;;;;;7.94;92.34863;95812.2;;;;
2021/09/21 00:25:53;;;;;;;18;13.05;;;;;;;7.94;92.34863;95812.2;;;;
2021/09/21 00:26:55;;;;;;;18;13.05;;;;;;;7.94;92.34863;95812.2;;;;
2021/09/21 00:27:55;;;;;;;17.55;12.85;;;;;;;8.14;92.64453;95802.7;;;;
2021/09/21 00:28:56;;;;;;;17.55;12.85;;;;;;;8.14;92.64453;95802.7;;;;
2021/09/21 00:29:56;;;;;;;17.55;12.85;;;;;;;8.14;92.64453;95802.7;;;;
2021/09/21 00:31:03;;;;;;;17.55;12.85;;;;;;;8.14;92.64453;95802.7;;;;
2021/09/21 00:32:04;;;;;;;17.55;12.85;;;;;;;8.14;92.64453;95802.7;;;;
2021/09/21 00:33:06;;;;;;;17.55;12.85;;;;;;;8.14;92.64453;95802.7;;;;
2021/09/21 00:34:08;;;;;;;17.55;12.85;;;;;;;8.14;92.64453;95802.7;;;;
2021/09/21 00:35:08;;;;;;;17.55;12.85;;;;;;;8.14;92.64453;95802.7;;;;
2021/09/21 00:36:09;;;;;;;17.55;12.85;;;;;;;8.14;92.64453;95802.7;;;;
2021/09/21 00:37:10;;;;;;;17.55;12.85;;;;;;;8.14;92.64453;95802.7;;;;
2021/09/21 00:38:12;;;;;;;17.15;13.25;;;;;;;8.48;92.47266;95800.8;;;;
2021/09/21 00:39:14;;;;;;;17.15;13.25;;;;;;;8.48;92.47266;95800.8;;;;
2021/09/21 00:40:15;;;;;;;17.15;13.25;;;;;;;8.48;92.47266;95800.8;;;;
2021/09/21 00:41:15;;;;;;;17.15;13.25;;;;;;;8.48;92.47266;95800.8;;;;
2021/09/21 00:42:16;;;;;;;17.15;13.25;;;;;;;8.48;92.47266;95800.8;;;;
2021/09/21 00:43:23;;;;;;;17.15;13.25;;;;;;;8.48;92.47266;95800.8;;;;
2021/09/21 00:44:23;;;;;;;17.15;13.25;;;;;;;8.48;92.47266;95800.8;;;;
2021/09/21 00:45:24;;;;;;;17.15;13.25;;;;;;;8.48;92.47266;95800.8;;;;
2021/09/21 00:46:24;;;;;;;17.15;13.25;;;;;;;8.48;92.47266;95800.8;;;;
2021/09/21 00:47:25;;;;;;;17.15;13.25;;;;;;;8.48;92.47266;95800.8;;;;
2021/09/21 00:48:28;;;;;;;17.15;13.25;;;;;;;8.48;92.47266;95800.8;;;;
2021/09/21 00:49:28;;;;;;;19.6;13.05;;;;;;;8.78;92.37793;95798.75;;;;
2021/09/21 00:50:29;;;;;;;19.6;13.05;;;;;;;8.78;92.37793;95798.75;;;;
2021/09/21 00:51:31;;;;;;;19.6;13.05;;;;;;;8.78;92.37793;95798.75;;;;
2021/09/21 00:52:32;;;;;;;19.6;13.05;;;;;;;8.78;92.37793;95798.75;;;;
2021/09/21 00:53:32;;;;;;;19.6;13.05;;;;;;;8.78;92.37793;95798.75;;;;
2021/09/21 00:54:33;;;;;;;19.6;13.05;;;;;;;8.78;92.37793;95798.75;;;;
2021/09/21 00:55:34;;;;;;;19.6;13.05;;;;;;;8.78;92.37793;95798.75;;;;
2021/09/21 00:56:34;;;;;;;19.6;13.05;;;;;;;8.78;92.37793;95798.75;;;;
2021/09/21 00:57:36;;;;;;;19.6;13.05;;;;;;;8.78;92.37793;95798.75;;;;
2021/09/21 00:58:37;;;;;;;19.6;13.05;;;;;;;8.78;92.37793;95798.75;;;;
2021/09/21 00:59:38;;;;;;;20.25;14.25;;;;;;;9.03;92.5166;95797.92;;;;
2021/09/21 01:00:38;;;;;;;20.25;14.25;;;;;;;9.03;92.5166;95797.92;;;;
2021/09/21 01:01:39;;;;;;;20.25;14.25;;;;;;;9.03;92.5166;95797.92;;;;
2021/09/21 01:02:40;;;;;;;20.25;14.25;;;;;;;9.03;92.5166;95797.92;;;;
2021/09/21 01:03:41;;;;;;;20.25;14.25;;;;;;;9.03;92.5166;95797.92;;;;
2021/09/21 01:04:41;;;;;;;20.25;14.25;;;;;;;9.03;92.5166;95797.92;;;;
2021/09/21 01:05:42;;;;;;;20.25;14.25;;;;;;;9.03;92.5166;95797.92;;;;
2021/09/21 01:06:43;;;;;;;20.25;14.25;;;;;;;9.03;92.5166;95797.92;;;;
2021/09/21 01:07:43;;;;;;;20.25;14.25;;;;;;;9.03;92.5166;95797.92;;;;
2021/09/21 01:08:44;;;;;;;20.25;14.25;;;;;;;9.03;92.5166;95797.92;;;;
2021/09/21 01:09:45;;;;;;;20.25;14.25;;;;;;;9.03;92.5166;95797.92;;;;
2021/09/21 01:10:46;;;;;;;17.25;13.95;;;;;;;9.27;92.7998;95798.55;;;;
2021/09/21 01:11:46;;;;;;;17.25;13.95;;;;;;;9.27;92.7998;95798.55;;;;
2021/09/21 01:12:48;;;;;;;17.25;13.95;;;;;;;9.27;92.7998;95798.55;;;;
2021/09/21 01:13:49;;;;;;;17.25;13.95;;;;;;;9.27;92.7998;95798.55;;;;
2021/09/21 01:14:49;;;;;;;17.25;13.95;;;;;;;9.27;92.7998;95798.55;;;;
2021/09/21 01:15:51;;;;;;;17.25;13.95;;;;;;;9.27;92.7998;95798.55;;;;
2021/09/21 01:16:52;;;;;;;17.25;13.95;;;;;;;9.27;92.7998;95798.55;;;;
2021/09/21 01:17:56;;;;;;;17.25;13.95;;;;;;;9.27;92.7998;95798.55;;;;
2021/09/21 01:18:57;;;;;;;17.25;13.95;;;;;;;9.27;92.7998;95798.55;;;;
2021/09/21 01:19:57;;;;;;;17.25;13.95;;;;;;;9.27;92.7998;95798.55;;;;
2021/09/21 01:20:58;;;;;;;17.4;12.95;;;;;;;9.45;93.0498;95794.2;;;;
2021/09/21 01:22:02;;;;;;;17.4;12.95;;;;;;;9.45;93.0498;95794.2;;;;
2021/09/21 01:23:02;;;;;;;17.4;12.95;;;;;;;9.45;93.0498;95794.2;;;;
2021/09/21 01:24:04;;;;;;;17.4;12.95;;;;;;;9.45;93.0498;95794.2;;;;
2021/09/21 01:25:05;;;;;;;17.4;12.95;;;;;;;9.45;93.0498;95794.2;;;;
2021/09/21 01:26:08;;;;;;;17.4;12.95;;;;;;;9.45;93.0498;95794.2;;;;
2021/09/21 01:27:09;;;;;;;17.4;12.95;;;;;;;9.45;93.0498;95794.2;;;;
2021/09/21 01:28:13;;;;;;;17.4;12.95;;;;;;;9.45;93.0498;95794.2;;;;
2021/09/21 01:29:13;;;;;;;17.4;12.95;;;;;;;9.45;93.0498;95794.2;;;;
2021/09/21 01:30:15;;;;;;;17.4;12.95;;;;;;;9.45;93.0498;95794.2;;;;
2021/09/21 01:31:15;;;;;;;17.4;12.95;;;;;;;9.45;93.0498;95794.2;;;;
2021/09/21 01:32:19;;;;;;;16.7;12.2;;;;;;;9.58;93.21582;95786.46;;;;
2021/09/21 01:33:20;;;;;;;16.7;12.2;;;;;;;9.58;93.21582;95786.46;;;;
2021/09/21 01:34:21;;;;;;;16.7;12.2;;;;;;;9.58;93.21582;95786.46;;;;
2021/09/21 01:35:21;;;;;;;16.7;12.2;;;;;;;9.58;93.21582;95786.46;;;;
2021/09/21 01:36:22;;;;;;;16.7;12.2;;;;;;;9.58;93.21582;95786.46;;;;
2021/09/21 01:37:25;;;;;;;16.7;12.2;;;;;;;9.58;93.21582;95786.46;;;;
2021/09/21 01:38:26;;;;;;;16.7;12.2;;;;;;;9.58;93.21582;95786.46;;;;
2021/09/21 01:39:27;;;;;;;16.7;12.2;;;;;;;9.58;93.21582;95786.46;;;;
2021/09/21 01:40:27;;;;;;;16.7;12.2;;;;;;;9.58;93.21582;95786.46;;;;
2021/09/21 01:41:28;;;;;;;16.7;12.2;;;;;;;9.58;93.21582;95786.46;;;;
2021/09/21 01:42:29;;;;;;;14.4;11.3;;;;;;;9.72;93.15918;95792.16;;;;
2021/09/21 01:43:29;;;;;;;14.4;11.3;;;;;;;9.72;93.15918;95792.16;;;;
2021/09/21 01:44:30;;;;;;;14.4;11.3;;;;;;;9.72;93.15918;95792.16;;;;
2021/09/21 01:45:31;;;;;;;14.4;11.3;;;;;;;9.72;93.15918;95792.16;;;;
2021/09/21 01:46:31;;;;;;;14.4;11.3;;;;;;;9.72;93.15918;95792.16;;;;
2021/09/21 01:47:32;;;;;;;14.4;11.3;;;;;;;9.72;93.15918;95792.16;;;;
2021/09/21 01:48:32;;;;;;;14.4;11.3;;;;;;;9.72;93.15918;95792.16;;;;
2021/09/21 01:49:38;;;;;;;14.4;11.3;;;;;;;9.72;93.15918;95792.16;;;;
2021/09/21 01:50:45;;;;;;;14.4;11.3;;;;;;;9.72;93.15918;95792.16;;;;
2021/09/21 01:51:52;;;;;;;14.4;11.3;;;;;;;9.72;93.15918;95792.16;;;;
2021/09/21 01:52:56;;;;;;;17.2;12.25;;;;;;;9.84;92.8877;95812.01;;;;
2021/09/21 01:54:11;;;;;;;17.2;12.25;;;;;;;9.84;92.8877;95812.01;;;;
2021/09/21 01:55:20;;;;;;;17.2;12.25;;;;;;;9.84;92.8877;95812.01;;;;
2021/09/21 02:01:35;;;;;;;17.2;12.25;;;;;;;9.84;92.8877;95812.01;;;;
2021/09/21 02:02:36;;;;;;;17.2;12.25;;;;;;;9.84;92.8877;95812.01;;;;
2021/09/21 02:03:36;;;;;;;14.6;12.3;;;;;;;9.93;92.92969;95830.92;;;;
2021/09/21 02:04:37;;;;;;;14.6;12.3;;;;;;;9.93;92.92969;95830.92;;;;
2021/09/21 02:05:37;;;;;;;14.6;12.3;;;;;;;9.93;92.92969;95830.92;;;;
2021/09/21 02:06:40;;;;;;;14.6;12.3;;;;;;;9.93;92.92969;95830.92;;;;
2021/09/21 02:07:40;;;;;;;14.6;12.3;;;;;;;9.93;92.92969;95830.92;;;;
2021/09/21 02:08:41;;;;;;;14.6;12.3;;;;;;;9.93;92.92969;95830.92;;;;
2021/09/21 02:09:41;;;;;;;14.6;12.3;;;;;;;9.93;92.92969;95830.92;;;;
2021/09/21 02:10:42;;;;;;;14.6;12.3;;;;;;;9.93;92.92969;95830.92;;;;
2021/09/21 02:11:42;;;;;;;14.6;12.3;;;;;;;9.93;92.92969;95830.92;;;;
2021/09/21 02:12:45;;;;;;;14.6;12.3;;;;;;;9.93;92.92969;95830.92;;;;
2021/09/21 02:13:46;;;;;;;14.6;12.3;;;;;;;9.93;92.92969;95830.92;;;;
2021/09/21 02:14:46;;;;;;;15.85;12.15;;;;;;;9.94;93.05859;95829.77;;;;
2021/09/21 02:15:47;;;;;;;15.85;12.15;;;;;;;9.94;93.05859;95829.77;;;;
2021/09/21 02:16:48;;;;;;;15.85;12.15;;;;;;;9.94;93.05859;95829.77;;;;
2021/09/21 02:17:48;;;;;;;15.85;12.15;;;;;;;9.94;93.05859;95829.77;;;;
2021/09/21 02:18:49;;;;;;;15.85;12.15;;;;;;;9.94;93.05859;95829.77;;;;
2021/09/21 02:19:50;;;;;;;15.85;12.15;;;;;;;9.94;93.05859;95829.77;;;;
2021/09/21 02:20:50;;;;;;;15.85;12.15;;;;;;;9.94;93.05859;95829.77;;;;
2021/09/21 02:21:51;;;;;;;15.85;12.15;;;;;;;9.94;93.05859;95829.77;;;;
2021/09/21 02:22:52;;;;;;;15.85;12.15;;;;;;;9.94;93.05859;95829.77;;;;
2021/09/21 02:23:53;;;;;;;15.85;12.15;;;;;;;9.94;93.05859;95829.77;;;;
2021/09/21 02:24:56;;;;;;;15.8;13.15;;;;;;;9.96;93.48828;95826.85;;;;
2021/09/21 02:25:57;;;;;;;15.8;13.15;;;;;;;9.96;93.48828;95826.85;;;;
2021/09/21 02:26:57;;;;;;;15.8;13.15;;;;;;;9.96;93.48828;95826.85;;;;
2021/09/21 02:27:58;;;;;;;15.8;13.15;;;;;;;9.96;93.48828;95826.85;;;;
2021/09/21 02:28:58;;;;;;;15.8;13.15;;;;;;;9.96;93.48828;95826.85;;;;
2021/09/21 02:29:59;;;;;;;15.8;13.15;;;;;;;9.96;93.48828;95826.85;;;;
2021/09/21 02:30:59;;;;;;;15.8;13.15;;;;;;;9.96;93.48828;95826.85;;;;
2021/09/21 02:32:00;;;;;;;15.8;13.15;;;;;;;9.96;93.48828;95826.85;;;;
2021/09/21 02:33:00;;;;;;;15.8;13.15;;;;;;;9.96;93.48828;95826.85;;;;
2021/09/21 02:34:01;;;;;;;15.8;13.15;;;;;;;9.96;93.48828;95826.85;;;;
2021/09/21 02:35:01;;;;;;;15.8;13.15;;;;;;;9.96;93.48828;95826.85;;;;
2021/09/21 02:36:05;;;;;;;15.5;12.2;;;;;;;10.02;93.78711;95830;;;;
2021/09/21 02:37:06;;;;;;;15.5;12.2;;;;;;;10.02;93.78711;95830;;;;
2021/09/21 02:38:06;;;;;;;15.5;12.2;;;;;;;10.02;93.78711;95830;;;;
2021/09/21 02:39:07;;;;;;;15.5;12.2;;;;;;;10.02;93.78711;95830;;;;
2021/09/21 02:40:09;;;;;;;15.5;12.2;;;;;;;10.02;93.78711;95830;;;;
2021/09/21 02:41:11;;;;;;;15.5;12.2;;;;;;;10.02;93.78711;95830;;;;
2021/09/21 02:42:12;;;;;;;15.5;12.2;;;;;;;10.02;93.78711;95830;;;;
2021/09/21 02:43:13;;;;;;;15.5;12.2;;;;;;;10.02;93.78711;95830;;;;
2021/09/21 02:44:13;;;;;;;15.5;12.2;;;;;;;10.02;93.78711;95830;;;;
2021/09/21 02:45:13;;;;;;;15.5;12.2;;;;;;;10.02;93.78711;95830;;;;
2021/09/21 02:46:14;;;;;;;14.4;11.6;;;;;;;10.11;93.72168;95834.11;;;;
2021/09/21 02:47:16;;;;;;;14.4;11.6;;;;;;;10.11;93.72168;95834.11;;;;
2021/09/21 02:48:16;;;;;;;14.4;11.6;;;;;;;10.11;93.72168;95834.11;;;;
2021/09/21 02:49:17;;;;;;;14.4;11.6;;;;;;;10.11;93.72168;95834.11;;;;
2021/09/21 02:50:18;;;;;;;14.4;11.6;;;;;;;10.11;93.72168;95834.11;;;;
2021/09/21 02:51:18;;;;;;;14.4;11.6;;;;;;;10.11;93.72168;95834.11;;;;
2021/09/21 02:52:19;;;;;;;14.4;11.6;;;;;;;10.11;93.72168;95834.11;;;;
2021/09/21 02:53:19;;;;;;;14.4;11.6;;;;;;;10.11;93.72168;95834.11;;;;
2021/09/21 02:54:20;;;;;;;14.4;11.6;;;;;;;10.11;93.72168;95834.11;;;;
2021/09/21 02:55:20;;;;;;;14.4;11.6;;;;;;;10.11;93.72168;95834.11;;;;
2021/09/21 02:56:21;;;;;;;14.4;11.6;;;;;;;10.11;93.72168;95834.11;;;;
2021/09/21 02:57:22;;;;;;;15.5;12.3;;;;;;;10.21;93.70117;95846.2;;;;
2021/09/21 02:58:22;;;;;;;15.5;12.3;;;;;;;10.21;93.70117;95846.2;;;;
2021/09/21 02:59:23;;;;;;;15.5;12.3;;;;;;;10.21;93.70117;95846.2;;;;
2021/09/21 03:00:25;;;;;;;15.5;12.3;;;;;;;10.21;93.70117;95846.2;;;;
2021/09/21 03:01:25;;;;;;;15.5;12.3;;;;;;;10.21;93.70117;95846.2;;;;
2021/09/21 03:02:29;;;;;;;15.5;12.3;;;;;;;10.21;93.70117;95846.2;;;;
2021/09/21 03:03:32;;;;;;;15.5;12.3;;;;;;;10.21;93.70117;95846.2;;;;
2021/09/21 03:04:35;;;;;;;15.5;12.3;;;;;;;10.21;93.70117;95846.2;;;;
2021/09/21 03:05:40;;;;;;;15.5;12.3;;;;;;;10.21;93.70117;95846.2;;;;
2021/09/21 03:06:44;;;;;;;15.5;12.3;;;;;;;10.21;93.70117;95846.2;;;;
2021/09/21 03:07:47;;;;;;;16.1;12.05;;;;;;;10.2;93.93164;95864.79;;;;
2021/09/21 03:08:48;;;;;;;16.1;12.05;;;;;;;10.2;93.93164;95864.79;;;;
2021/09/21 03:09:54;;;;;;;16.1;12.05;;;;;;;10.2;93.93164;95864.79;;;;
2021/09/21 03:11:09;;;;;;;16.1;12.05;;;;;;;10.2;93.93164;95864.79;;;;
2021/09/21 03:12:19;;;;;;;16.1;12.05;;;;;;;10.2;93.93164;95864.79;;;;
2021/09/21 03:13:27;;;;;;;16.1;12.05;;;;;;;10.2;93.93164;95864.79;;;;
2021/09/21 03:19:39;;;;;;;14.15;11.7;;;;;;;10.26;94.23242;95868.78;;;;
2021/09/21 03:20:40;;;;;;;14.15;11.7;;;;;;;10.26;94.23242;95868.78;;;;
2021/09/21 03:21:40;;;;;;;14.15;11.7;;;;;;;10.26;94.23242;95868.78;;;;
2021/09/21 03:22:41;;;;;;;14.15;11.7;;;;;;;10.26;94.23242;95868.78;;;;
2021/09/21 03:23:41;;;;;;;14.15;11.7;;;;;;;10.26;94.23242;95868.78;;;;
2021/09/21 03:24:42;;;;;;;14.15;11.7;;;;;;;10.26;94.23242;95868.78;;;;
2021/09/21 03:25:42;;;;;;;14.15;11.7;;;;;;;10.26;94.23242;95868.78;;;;
2021/09/21 03:26:43;;;;;;;14.15;11.7;;;;;;;10.26;94.23242;95868.78;;;;
2021/09/21 03:27:44;;;;;;;14.15;11.7;;;;;;;10.26;94.23242;95868.78;;;;
2021/09/21 03:28:45;;;;;;;14.15;11.7;;;;;;;10.26;94.23242;95868.78;;;;
2021/09/21 03:29:46;;;;;;;15.2;12;;;;;;;10.26;94.42383;95871.06;;;;
2021/09/21 03:30:46;;;;;;;15.2;12;;;;;;;10.26;94.42383;95871.06;;;;
2021/09/21 03:31:47;;;;;;;15.2;12;;;;;;;10.26;94.42383;95871.06;;;;
2021/09/21 03:32:48;;;;;;;15.2;12;;;;;;;10.26;94.42383;95871.06;;;;
2021/09/21 03:33:49;;;;;;;15.2;12;;;;;;;10.26;94.42383;95871.06;;;;
2021/09/21 03:34:49;;;;;;;15.2;12;;;;;;;10.26;94.42383;95871.06;;;;
2021/09/21 03:35:49;;;;;;;15.2;12;;;;;;;10.26;94.42383;95871.06;;;;
2021/09/21 03:36:50;;;;;;;15.2;12;;;;;;;10.26;94.42383;95871.06;;;;
2021/09/21 03:37:51;;;;;;;15.2;12;;;;;;;10.26;94.42383;95871.06;;;;
2021/09/21 03:38:52;;;;;;;15.2;12;;;;;;;10.26;94.42383;95871.06;;;;
2021/09/21 03:39:52;;;;;;;15.95;12.55;;;;;;;10.28;94.7998;95877.59;;;;
2021/09/21 03:40:53;;;;;;;15.95;12.55;;;;;;;10.28;94.7998;95877.59;;;;
2021/09/21 03:41:53;;;;;;;15.95;12.55;;;;;;;10.28;94.7998;95877.59;;;;
2021/09/21 03:42:54;;;;;;;15.95;12.55;;;;;;;10.28;94.7998;95877.59;;;;
2021/09/21 03:43:54;;;;;;;15.95;12.55;;;;;;;10.28;94.7998;95877.59;;;;
2021/09/21 03:44:55;;;;;;;15.95;12.55;;;;;;;10.28;94.7998;95877.59;;;;
2021/09/21 03:45:55;;;;;;;15.95;12.55;;;;;;;10.28;94.7998;95877.59;;;;
2021/09/21 03:46:56;;;;;;;15.95;12.55;;;;;;;10.28;94.7998;95877.59;;;;
2021/09/21 03:47:57;;;;;;;15.95;12.55;;;;;;;10.28;94.7998;95877.59;;;;
2021/09/21 03:48:57;;;;;;;15.95;12.55;;;;;;;10.28;94.7998;95877.59;;;;
2021/09/21 03:49:58;;;;;;;15.95;12.55;;;;;;;10.28;94.7998;95877.59;;;;
2021/09/21 03:50:59;;;;;;;14.95;12.55;;;;;;;10.32;95.13965;95876.01;;;;
2021/09/21 03:51:59;;;;;;;14.95;12.55;;;;;;;10.32;95.13965;95876.01;;;;
2021/09/21 03:53:00;;;;;;;14.95;12.55;;;;;;;10.32;95.13965;95876.01;;;;
2021/09/21 03:54:01;;;;;;;14.95;12.55;;;;;;;10.32;95.13965;95876.01;;;;
2021/09/21 03:55:03;;;;;;;14.95;12.55;;;;;;;10.32;95.13965;95876.01;;;;
2021/09/21 03:56:04;;;;;;;14.95;12.55;;;;;;;10.32;95.13965;95876.01;;;;
2021/09/21 03:57:05;;;;;;;14.95;12.55;;;;;;;10.32;95.13965;95876.01;;;;
2021/09/21 03:58:06;;;;;;;14.95;12.55;;;;;;;10.32;95.13965;95876.01;;;;
2021/09/21 03:59:07;;;;;;;14.95;12.55;;;;;;;10.32;95.13965;95876.01;;;;
2021/09/21 04:00:08;;;;;;;14.95;12.55;;;;;;;10.32;95.13965;95876.01;;;;
2021/09/21 04:01:10;;;;;;;12.55;10.45;;;;;;;10.39;95.52539;95885.39;;;;
2021/09/21 04:02:10;;;;;;;12.55;10.45;;;;;;;10.39;95.52539;95885.39;;;;
2021/09/21 04:03:11;;;;;;;12.55;10.45;;;;;;;10.39;95.52539;95885.39;;;;
2021/09/21 04:04:12;;;;;;;12.55;10.45;;;;;;;10.39;95.52539;95885.39;;;;
2021/09/21 04:05:12;;;;;;;12.55;10.45;;;;;;;10.39;95.52539;95885.39;;;;
2021/09/21 04:06:13;;;;;;;12.55;10.45;;;;;;;10.39;95.52539;95885.39;;;;
2021/09/21 04:07:13;;;;;;;12.55;10.45;;;;;;;10.39;95.52539;95885.39;;;;
2021/09/21 04:08:14;;;;;;;12.55;10.45;;;;;;;10.39;95.52539;95885.39;;;;
2021/09/21 04:09:15;;;;;;;12.55;10.45;;;;;;;10.39;95.52539;95885.39;;;;
2021/09/21 04:10:15;;;;;;;12.55;10.45;;;;;;;10.39;95.52539;95885.39;;;;
2021/09/21 04:11:16;;;;;;;12.55;10.45;;;;;;;10.39;95.52539;95885.39;;;;
2021/09/21 04:12:16;;;;;;;17.35;10.2;;;;;;;10.43;95.55566;95892.02;;;;
2021/09/21 04:13:17;;;;;;;17.35;10.2;;;;;;;10.43;95.55566;95892.02;;;;
2021/09/21 04:14:17;;;;;;;17.35;10.2;;;;;;;10.43;95.55566;95892.02;;;;
2021/09/21 04:15:18;;;;;;;17.35;10.2;;;;;;;10.43;95.55566;95892.02;;;;
2021/09/21 04:16:18;;;;;;;17.35;10.2;;;;;;;10.43;95.55566;95892.02;;;;
2021/09/21 04:17:19;;;;;;;17.35;10.2;;;;;;;10.43;95.55566;95892.02;;;;
2021/09/21 04:18:19;;;;;;;17.35;10.2;;;;;;;10.43;95.55566;95892.02;;;;
2021/09/21 04:19:20;;;;;;;17.35;10.2;;;;;;;10.43;95.55566;95892.02;;;;
2021/09/21 04:20:20;;;;;;;17.35;10.2;;;;;;;10.43;95.55566;95892.02;;;;
2021/09/21 04:21:21;;;;;;;17.35;10.2;;;;;;;10.43;95.55566;95892.02;;;;
2021/09/21 04:22:21;;;;;;;12.8;10.75;;;;;;;10.4;95.45313;95900.02;;;;
2021/09/21 04:23:22;;;;;;;12.8;10.75;;;;;;;10.4;95.45313;95900.02;;;;
2021/09/21 04:24:23;;;;;;;12.8;10.75;;;;;;;10.4;95.45313;95900.02;;;;
2021/09/21 04:25:23;;;;;;;12.8;10.75;;;;;;;10.4;95.45313;95900.02;;;;
2021/09/21 04:26:24;;;;;;;12.8;10.75;;;;;;;10.4;95.45313;95900.02;;;;
2021/09/21 04:27:24;;;;;;;12.8;10.75;;;;;;;10.4;95.45313;95900.02;;;;
2021/09/21 04:28:25;;;;;;;12.8;10.75;;;;;;;10.4;95.45313;95900.02;;;;
2021/09/21 04:29:26;;;;;;;12.8;10.75;;;;;;;10.4;95.45313;95900.02;;;;
2021/09/21 04:30:27;;;;;;;12.8;10.75;;;;;;;10.4;95.45313;95900.02;;;;
2021/09/21 04:31:28;;;;;;;12.8;10.75;;;;;;;10.4;95.45313;95900.02;;;;
2021/09/21 04:32:28;;;;;;;12.8;10.75;;;;;;;10.4;95.45313;95900.02;;;;
2021/09/21 04:33:29;;;;;;;14.7;10.35;;;;;;;10.37;95.5957;95889.25;;;;
2021/09/21 04:34:30;;;;;;;14.7;10.35;;;;;;;10.37;95.5957;95889.25;;;;
2021/09/21 04:35:31;;;;;;;14.7;10.35;;;;;;;10.37;95.5957;95889.25;;;;
2021/09/21 04:36:31;;;;;;;14.7;10.35;;;;;;;10.37;95.5957;95889.25;;;;
2021/09/21 04:37:32;;;;;;;14.7;10.35;;;;;;;10.37;95.5957;95889.25;;;;
2021/09/21 04:38:32;;;;;;;14.7;10.35;;;;;;;10.37;95.5957;95889.25;;;;
2021/09/21 04:39:33;;;;;;;14.7;10.35;;;;;;;10.37;95.5957;95889.25;;;;
2021/09/21 04:40:34;;;;;;;14.7;10.35;;;;;;;10.37;95.5957;95889.25;;;;
2021/09/21 04:41:35;;;;;;;14.7;10.35;;;;;;;10.37;95.5957;95889.25;;;;
2021/09/21 04:42:36;;;;;;;14.7;10.35;;;;;;;10.37;95.5957;95889.25;;;;
2021/09/21 04:43:37;;;;;;;13.65;10.8;;;;;;;10.35;95.63281;95913.87;;;;
2021/09/21 04:44:38;;;;;;;13.65;10.8;;;;;;;10.35;95.63281;95913.87;;;;
2021/09/21 04:45:38;;;;;;;13.65;10.8;;;;;;;10.35;95.63281;95913.87;;;;
2021/09/21 04:46:39;;;;;;;13.65;10.8;;;;;;;10.35;95.63281;95913.87;;;;
2021/09/21 04:47:40;;;;;;;13.65;10.8;;;;;;;10.35;95.63281;95913.87;;;;
2021/09/21 04:48:40;;;;;;;13.65;10.8;;;;;;;10.35;95.63281;95913.87;;;;
2021/09/21 04:49:41;;;;;;;13.65;10.8;;;;;;;10.35;95.63281;95913.87;;;;
2021/09/21 04:50:42;;;;;;;13.65;10.8;;;;;;;10.35;95.63281;95913.87;;;;
2021/09/21 04:51:43;;;;;;;13.65;10.8;;;;;;;10.35;95.63281;95913.87;;;;
2021/09/21 04:52:43;;;;;;;13.65;10.8;;;;;;;10.35;95.63281;95913.87;;;;
2021/09/21 04:53:44;;;;;;;13.65;10.8;;;;;;;10.35;95.63281;95913.87;;;;
2021/09/21 04:54:44;;;;;;;13.2;10.85;;;;;;;10.33;95.81934;95918.66;;;;
2021/09/21 04:55:45;;;;;;;13.2;10.85;;;;;;;10.33;95.81934;95918.66;;;;
2021/09/21 04:56:45;;;;;;;13.2;10.85;;;;;;;10.33;95.81934;95918.66;;;;
2021/09/21 04:57:46;;;;;;;13.2;10.85;;;;;;;10.33;95.81934;95918.66;;;;
2021/09/21 04:58:46;;;;;;;13.2;10.85;;;;;;;10.33;95.81934;95918.66;;;;
2021/09/21 04:59:47;;;;;;;13.2;10.85;;;;;;;10.33;95.81934;95918.66;;;;
2021/09/21 05:00:49;;;;;;;13.2;10.85;;;;;;;10.33;95.81934;95918.66;;;;
2021/09/21 05:01:49;;;;;;;13.2;10.85;;;;;;;10.33;95.81934;95918.66;;;;
2021/09/21 05:02:50;;;;;;;13.2;10.85;;;;;;;10.33;95.81934;95918.66;;;;
2021/09/21 05:03:50;;;;;;;13.2;10.85;;;;;;;10.33;95.81934;95918.66;;;;
2021/09/21 05:04:51;;;;;;;14.15;11.15;;;;;;;10.35;95.96191;95932.34;;;;
2021/09/21 05:05:51;;;;;;;14.15;11.15;;;;;;;10.35;95.96191;95932.34;;;;
2021/09/21 05:06:52;;;;;;;14.15;11.15;;;;;;;10.35;95.96191;95932.34;;;;
2021/09/21 05:07:53;;;;;;;14.15;11.15;;;;;;;10.35;95.96191;95932.34;;;;
2021/09/21 05:08:53;;;;;;;14.15;11.15;;;;;;;10.35;95.96191;95932.34;;;;
2021/09/21 05:09:54;;;;;;;14.15;11.15;;;;;;;10.35;95.96191;95932.34;;;;
2021/09/21 05:10:55;;;;;;;14.15;11.15;;;;;;;10.35;95.96191;95932.34;;;;
2021/09/21 05:11:55;;;;;;;14.15;11.15;;;;;;;10.35;95.96191;95932.34;;;;
2021/09/21 05:12:56;;;;;;;14.15;11.15;;;;;;;10.35;95.96191;95932.34;;;;
2021/09/21 05:13:56;;;;;;;14.15;11.15;;;;;;;10.35;95.96191;95932.34;;;;
2021/09/21 05:14:57;;;;;;;14.15;11.15;;;;;;;10.35;95.96191;95932.34;;;;
2021/09/21 05:15:57;;;;;;;14.55;10.65;;;;;;;10.42;95.93555;95942.47;;;;
2021/09/21 05:16:58;;;;;;;14.55;10.65;;;;;;;10.42;95.93555;95942.47;;;;
2021/09/21 05:17:58;;;;;;;14.55;10.65;;;;;;;10.42;95.93555;95942.47;;;;
2021/09/21 05:18:59;;;;;;;14.55;10.65;;;;;;;10.42;95.93555;95942.47;;;;
2021/09/21 05:20:00;;;;;;;14.55;10.65;;;;;;;10.42;95.93555;95942.47;;;;
2021/09/21 05:21:00;;;;;;;14.55;10.65;;;;;;;10.42;95.93555;95942.47;;;;
2021/09/21 05:22:01;;;;;;;14.55;10.65;;;;;;;10.42;95.93555;95942.47;;;;
2021/09/21 05:23:02;;;;;;;14.55;10.65;;;;;;;10.42;95.93555;95942.47;;;;
2021/09/21 05:24:03;;;;;;;14.55;10.65;;;;;;;10.42;95.93555;95942.47;;;;
2021/09/21 05:25:04;;;;;;;14.55;10.65;;;;;;;10.42;95.93555;95942.47;;;;
2021/09/21 05:26:06;;;;;;;14.55;10.65;;;;;;;10.42;95.93555;95942.47;;;;
2021/09/21 05:27:07;;;;;;;13.25;9.950001;;;;;;;10.39;95.6748;95956.93;;;;
2021/09/21 05:28:07;;;;;;;13.25;9.950001;;;;;;;10.39;95.6748;95956.93;;;;
2021/09/21 05:29:08;;;;;;;13.25;9.950001;;;;;;;10.39;95.6748;95956.93;;;;
2021/09/21 05:30:08;;;;;;;13.25;9.950001;;;;;;;10.39;95.6748;95956.93;;;;
2021/09/21 05:31:10;;;;;;;13.25;9.950001;;;;;;;10.39;95.6748;95956.93;;;;
2021/09/21 05:32:10;;;;;;;13.25;9.950001;;;;;;;10.39;95.6748;95956.93;;;;
2021/09/21 05:33:11;;;;;;;13.25;9.950001;;;;;;;10.39;95.6748;95956.93;;;;
2021/09/21 05:34:11;;;;;;;13.25;9.950001;;;;;;;10.39;95.6748;95956.93;;;;
2021/09/21 05:35:12;;;;;;;13.25;9.950001;;;;;;;10.39;95.6748;95956.93;;;;
2021/09/21 05:36:13;;;;;;;13.25;9.950001;;;;;;;10.39;95.6748;95956.93;;;;
2021/09/21 05:37:13;;;;;;;12.3;9.099998;;;;;;;10.42;96.14844;95978.92;;;;
2021/09/21 05:38:14;;;;;;;12.3;9.099998;;;;;;;10.42;96.14844;95978.92;;;;
2021/09/21 05:39:16;;;;;;;12.3;9.099998;;;;;;;10.42;96.14844;95978.92;;;;
2021/09/21 05:40:17;;;;;;;12.3;9.099998;;;;;;;10.42;96.14844;95978.92;;;;
2021/09/21 05:41:17;;;;;;;12.3;9.099998;;;;;;;10.42;96.14844;95978.92;;;;
2021/09/21 05:42:18;;;;;;;12.3;9.099998;;;;;;;10.42;96.14844;95978.92;;;;
2021/09/21 05:43:18;;;;;;;12.3;9.099998;;;;;;;10.42;96.14844;95978.92;;;;
2021/09/21 05:44:19;;;;;;;12.3;9.099998;;;;;;;10.42;96.14844;95978.92;;;;
2021/09/21 05:45:19;;;;;;;12.3;9.099998;;;;;;;10.42;96.14844;95978.92;;;;
2021/09/21 05:46:20;;;;;;;12.3;9.099998;;;;;;;10.42;96.14844;95978.92;;;;
2021/09/21 05:47:20;;;;;;;12.3;9.099998;;;;;;;10.42;96.14844;95978.92;;;;
2021/09/21 05:48:21;;;;;;;10.15;8.950001;;;;;;;10.53;96.20508;95988.6;;;;
2021/09/21 05:49:21;;;;;;;10.15;8.950001;;;;;;;10.53;96.20508;95988.6;;;;
2021/09/21 05:50:22;;;;;;;10.15;8.950001;;;;;;;10.53;96.20508;95988.6;;;;
2021/09/21 05:51:23;;;;;;;10.15;8.950001;;;;;;;10.53;96.20508;95988.6;;;;
2021/09/21 05:52:23;;;;;;;10.15;8.950001;;;;;;;10.53;96.20508;95988.6;;;;
2021/09/21 05:53:24;;;;;;;10.15;8.950001;;;;;;;10.53;96.20508;95988.6;;;;
2021/09/21 05:54:24;;;;;;;10.15;8.950001;;;;;;;10.53;96.20508;95988.6;;;;